Time;durP1;ratioP1;P1;durP2;ratioP2;P2;SDS_P1;SDS_P2;PMS_P1;PMS_P2;Temp;Humidity;BMP_temperature;BMP_pressure;BME280_temperature;BME280_humidity;BME280_pressure;Samples;Min_cycle;Max_cycle;Signal;HPM_P1;HPM_P2
2021/10/07 00:00:23;;;;;;;;;;;;;;;32.12;18.17;94874.13;4996332;28;19922;-47
2021/10/07 00:02:50;;;;;;;;;;;;;;;32.61;17.57;94863.59;4996139;28;19918;-47
2021/10/07 00:05:16;;;;;;;;;;;;;;;31.83;18.31;94869.19;4996511;28;19918;-48
2021/10/07 00:07:43;;;;;;;;;;;;;;;32.12;18.02;94844.38;4996348;28;19918;-47
2021/10/07 00:10:10;;;;;;;;;;;;;;;32.01;18.00;94849.19;4995797;28;19921;-50
2021/10/07 00:12:37;;;;;;;;;;;;;;;32.14;18.23;94852.81;5008949;28;20236;-48
2021/10/07 00:15:04;;;;;;;;;;;;;;;32.16;17.98;94847.78;4996659;28;20237;-48
2021/10/07 00:17:31;;;;;;;;;;;;;;;32.17;17.95;94857.41;5002576;28;19925;-48
2021/10/07 00:19:58;;;;;;;;;;;;;;;32.03;18.00;94857.66;4998026;28;20287;-53
2021/10/07 00:22:25;;;;;;;;;;;;;;;31.81;18.67;94858.00;4996188;28;19929;-47
2021/10/07 00:24:52;;;;;;;;;;;;;;;31.98;18.06;94861.59;4994947;28;19921;-47
2021/10/07 00:27:18;;;;;;;;;;;;;;;32.50;17.86;94859.13;4998754;28;19913;-51
2021/10/07 00:29:46;;;;;;;;;;;;;;;32.01;18.10;94844.56;4992131;28;20388;-47
2021/10/07 00:39:03;;;;;;;;;;;;;;;32.05;18.03;94833.69;4995912;28;19922;-51
2021/10/07 00:40:13;;;;;;;;;;;;;;;31.65;18.52;94838.94;4995214;28;19926;-49
2021/10/07 00:42:40;;;;;;;;;;;;;;;31.50;18.93;94829.53;4995052;28;19917;-48
2021/10/07 00:45:07;;;;;;;;;;;;;;;31.90;18.37;94838.56;4994635;28;20305;-48
2021/10/07 00:47:34;;;;;;;;;;;;;;;32.19;17.97;94833.41;4995026;28;19921;-46
2021/10/07 00:50:02;;;;;;;;;;;;;;;31.79;18.82;94833.34;4999750;28;19924;-49
2021/10/07 00:52:29;;;;;;;;;;;;;;;32.01;18.45;94836.44;4986505;28;19921;-48
2021/10/07 00:54:56;;;;;;;;;;;;;;;32.15;18.38;94838.91;4995400;28;19924;-47
2021/10/07 00:57:23;;;;;;;;;;;;;;;32.09;18.68;94834.38;4988717;28;19917;-48
2021/10/07 00:59:51;;;;;;;;;;;;;;;32.05;18.74;94839.84;4992630;28;20363;-50
2021/10/07 01:02:18;;;;;;;;;;;;;;;31.85;18.87;94831.69;4995029;28;19920;-47
2021/10/07 01:04:45;;;;;;;;;;;;;;;32.16;18.30;94831.53;4995143;28;20206;-47
2021/10/07 01:07:12;;;;;;;;;;;;;;;31.95;18.67;94840.03;4995160;28;19918;-48
2021/10/07 01:09:39;;;;;;;;;;;;;;;32.04;18.36;94829.44;4994908;28;19917;-48
2021/10/07 01:12:07;;;;;;;;;;;;;;;31.82;18.76;94831.75;5008750;28;19921;-49
2021/10/07 01:14:42;;;;;;;;;;;;;;;32.16;18.36;94834.25;4994986;28;20248;-48
2021/10/07 01:17:09;;;;;;;;;;;;;;;32.05;18.53;94844.50;4994565;28;19914;-48
2021/10/07 01:19:37;;;;;;;;;;;;;;;32.12;18.44;94822.72;4995960;28;19913;-47
2021/10/07 01:22:04;;;;;;;;;;;;;;;32.15;18.33;94816.50;5005150;28;19921;-48
2021/10/07 01:24:31;;;;;;;;;;;;;;;31.72;18.36;94822.63;4995728;28;19914;-47
2021/10/07 01:26:58;;;;;;;;;;;;;;;31.55;18.68;94824.41;4994844;28;19913;-49
2021/10/07 01:29:25;;;;;;;;;;;;;;;31.87;18.65;94812.34;5004801;28;19914;-48
2021/10/07 01:31:52;;;;;;;;;;;;;;;31.94;18.57;94816.88;4994841;28;19914;-48
2021/10/07 01:34:22;;;;;;;;;;;;;;;31.72;18.46;94828.03;4993983;28;19913;-49
2021/10/07 01:36:50;;;;;;;;;;;;;;;31.54;19.01;94822.91;4994356;28;19914;-49
2021/10/07 01:39:17;;;;;;;;;;;;;;;31.92;18.40;94819.97;4994817;28;19913;-50
2021/10/07 01:41:44;;;;;;;;;;;;;;;31.95;18.38;94818.38;5003535;28;19941;-53
2021/10/07 01:44:11;;;;;;;;;;;;;;;31.62;18.71;94818.13;4999684;28;19914;-48
2021/10/07 01:46:38;;;;;;;;;;;;;;;31.76;18.63;94817.94;4994364;28;19944;-51
2021/10/07 01:49:06;;;;;;;;;;;;;;;31.62;18.92;94814.66;4994215;28;20114;-51
2021/10/07 01:51:35;;;;;;;;;;;;;;;31.71;19.09;94810.28;4997012;28;19925;-49
2021/10/07 01:54:03;;;;;;;;;;;;;;;31.92;18.34;94824.63;5001114;28;19940;-48
2021/10/07 01:56:30;;;;;;;;;;;;;;;31.66;19.09;94810.72;4994261;28;20252;-51
2021/10/07 01:58:57;;;;;;;;;;;;;;;31.68;18.65;94811.09;5006230;28;19918;-50
2021/10/07 02:01:24;;;;;;;;;;;;;;;31.94;18.79;94806.06;4994224;28;20336;-49
2021/10/07 02:03:51;;;;;;;;;;;;;;;31.38;19.35;94805.78;4994551;28;20312;-48
2021/10/07 02:06:18;;;;;;;;;;;;;;;31.91;18.72;94807.66;4993678;28;19917;-48
2021/10/07 02:08:44;;;;;;;;;;;;;;;31.52;18.89;94821.78;4993644;28;19913;-51
2021/10/07 02:11:11;;;;;;;;;;;;;;;32.02;18.70;94804.78;4996899;28;20312;-48
2021/10/07 02:13:38;;;;;;;;;;;;;;;31.41;18.98;94813.06;5004465;28;19952;-48
2021/10/07 02:16:05;;;;;;;;;;;;;;;31.31;19.31;94819.38;4993758;28;19913;-51
2021/10/07 02:18:32;;;;;;;;;;;;;;;31.82;18.80;94808.19;4990665;28;19921;-49
2021/10/07 02:20:59;;;;;;;;;;;;;;;32.12;18.08;94807.28;5003158;28;19937;-48
2021/10/07 02:23:26;;;;;;;;;;;;;;;31.47;19.17;94800.59;5006161;28;19929;-52
2021/10/07 02:25:53;;;;;;;;;;;;;;;31.67;18.70;94798.75;4994516;28;19914;-50
2021/10/07 02:28:19;;;;;;;;;;;;;;;31.78;18.60;94799.38;5005146;28;19917;-49
2021/10/07 02:30:46;;;;;;;;;;;;;;;31.73;18.75;94796.38;4996420;28;19925;-51
2021/10/07 02:33:14;;;;;;;;;;;;;;;31.82;18.63;94789.25;4996742;28;19918;-48
2021/10/07 02:35:40;;;;;;;;;;;;;;;31.43;19.23;94797.19;4998086;28;19922;-51
2021/10/07 02:38:07;;;;;;;;;;;;;;;31.74;18.50;94798.66;4997652;28;19914;-48
2021/10/07 02:40:34;;;;;;;;;;;;;;;31.69;18.89;94796.41;4997990;28;19922;-47
2021/10/07 02:43:01;;;;;;;;;;;;;;;31.60;18.90;94804.28;4998675;28;19921;-46
2021/10/07 02:45:28;;;;;;;;;;;;;;;31.84;18.11;94776.09;4997075;28;19944;-48
2021/10/07 02:47:55;;;;;;;;;;;;;;;31.89;18.28;94783.72;4997811;28;19918;-49
2021/10/07 02:50:22;;;;;;;;;;;;;;;32.11;18.23;94796.88;5004771;28;19917;-48
2021/10/07 02:52:49;;;;;;;;;;;;;;;31.90;17.97;94784.50;5013120;28;19918;-49
2021/10/07 02:55:16;;;;;;;;;;;;;;;31.52;18.46;94794.75;4982108;28;19921;-49
2021/10/07 02:57:45;;;;;;;;;;;;;;;31.69;18.51;94801.81;5003578;28;19914;-48
2021/10/07 03:00:12;;;;;;;;;;;;;;;31.71;18.44;94826.50;5005701;28;19914;-46
2021/10/07 03:02:39;;;;;;;;;;;;;;;31.65;18.31;94784.88;4997323;28;19914;-50
2021/10/07 03:05:06;;;;;;;;;;;;;;;31.98;17.95;94790.53;4996429;28;19917;-48
2021/10/07 03:07:34;;;;;;;;;;;;;;;31.60;18.25;94788.06;4996165;28;20240;-53
2021/10/07 03:10:01;;;;;;;;;;;;;;;31.79;17.84;94811.72;4997497;28;20335;-51
2021/10/07 03:12:27;;;;;;;;;;;;;;;31.65;17.96;94805.75;5008099;28;19944;-51
2021/10/07 03:14:54;;;;;;;;;;;;;;;31.42;18.25;94784.88;5000898;28;19929;-48
2021/10/07 03:17:21;;;;;;;;;;;;;;;31.84;17.65;94794.25;4996441;28;19929;-50
2021/10/07 03:19:48;;;;;;;;;;;;;;;32.11;17.27;94783.34;5000059;28;19918;-48
2021/10/07 03:22:15;;;;;;;;;;;;;;;31.72;18.05;94787.50;5015196;28;19929;-50
2021/10/07 03:24:43;;;;;;;;;;;;;;;31.92;17.89;94789.47;5002817;28;20305;-46
2021/10/07 03:27:09;;;;;;;;;;;;;;;31.75;17.67;94794.81;4996796;28;19921;-48
2021/10/07 03:29:36;;;;;;;;;;;;;;;31.69;18.17;94804.50;4997036;28;19929;-48
2021/10/07 03:32:03;;;;;;;;;;;;;;;31.77;18.04;94813.31;4996914;28;20316;-48
2021/10/07 03:34:30;;;;;;;;;;;;;;;31.88;17.67;94809.22;4997032;28;19926;-47
2021/10/07 03:36:57;;;;;;;;;;;;;;;31.73;17.93;94793.66;4995661;28;19921;-49
2021/10/07 03:39:24;;;;;;;;;;;;;;;31.97;17.85;94789.00;4994888;28;19914;-50
2021/10/07 03:41:50;;;;;;;;;;;;;;;31.81;18.15;94793.16;5001034;28;19917;-50
2021/10/07 03:44:17;;;;;;;;;;;;;;;31.77;18.26;94799.78;5006037;28;19921;-48
2021/10/07 03:46:44;;;;;;;;;;;;;;;31.78;18.16;94796.69;4996358;28;19989;-49
2021/10/07 03:49:11;;;;;;;;;;;;;;;31.35;18.56;94793.09;4996109;28;19917;-48
2021/10/07 03:51:38;;;;;;;;;;;;;;;31.70;18.45;94791.75;5009078;28;19922;-50
2021/10/07 03:54:05;;;;;;;;;;;;;;;31.90;17.63;94790.66;4995289;28;19925;-50
2021/10/07 03:56:32;;;;;;;;;;;;;;;31.77;17.81;94791.69;4996673;28;19917;-49
2021/10/07 03:58:59;;;;;;;;;;;;;;;31.61;18.44;94786.88;4998031;28;19914;-48
2021/10/07 04:01:25;;;;;;;;;;;;;;;31.61;18.08;94784.19;4996405;28;19917;-47
2021/10/07 04:03:52;;;;;;;;;;;;;;;31.71;18.04;94794.06;4995792;28;19914;-48
2021/10/07 04:06:19;;;;;;;;;;;;;;;31.69;18.26;94758.56;4996386;28;19921;-49
2021/10/07 04:08:46;;;;;;;;;;;;;;;31.39;18.30;94770.25;4995875;28;19925;-47
2021/10/07 04:11:13;;;;;;;;;;;;;;;31.65;18.05;94771.38;4996488;28;19925;-50
2021/10/07 04:13:41;;;;;;;;;;;;;;;31.34;18.71;94776.13;5010790;28;20217;-48
2021/10/07 04:16:08;;;;;;;;;;;;;;;31.36;18.33;94773.00;4996231;28;19948;-51
2021/10/07 04:18:35;;;;;;;;;;;;;;;30.61;19.16;94764.00;4994118;28;19944;-47
2021/10/07 04:21:02;;;;;;;;;;;;;;;32.08;18.29;94762.56;4983858;28;19922;-47
2021/10/07 04:23:29;;;;;;;;;;;;;;;33.01;17.65;94762.22;4977010;28;20252;-54
2021/10/07 04:25:55;;;;;;;;;;;;;;;33.60;16.76;94747.75;4992073;28;19918;-44
2021/10/07 04:28:22;;;;;;;;;;;;;;;34.46;16.09;94750.94;4997236;28;19917;-50
2021/10/07 04:30:49;;;;;;;;;;;;;;;35.05;15.63;94736.03;4989770;28;19932;-51
2021/10/07 04:33:16;;;;;;;;;;;;;;;35.45;15.28;94764.31;4993772;28;19913;-49
2021/10/07 04:35:43;;;;;;;;;;;;;;;35.65;14.87;94745.00;4989717;28;19918;-43
2021/10/07 04:38:10;;;;;;;;;;;;;;;36.11;14.33;94746.19;4995373;28;19918;-47
2021/10/07 04:40:37;;;;;;;;;;;;;;;36.38;14.63;94744.88;4983750;28;20340;-51
2021/10/07 04:43:04;;;;;;;;;;;;;;;37.47;13.37;94754.78;5003177;28;19920;-53
2021/10/07 04:45:31;;;;;;;;;;;;;;;35.83;14.43;94768.91;4981801;28;19914;-50
2021/10/07 04:47:57;;;;;;;;;;;;;;;33.80;15.83;94769.28;4986014;28;20620;-49
2021/10/07 04:50:24;;;;;;;;;;;;;;;33.00;16.44;94771.53;4980652;28;19918;-66
2021/10/07 04:52:51;;;;;;;;;;;;;;;32.62;17.04;94770.41;4976265;28;19918;-53
2021/10/07 04:55:18;;;;;;;;;;;;;;;31.79;17.35;94771.19;4979752;28;19917;-55
2021/10/07 04:57:45;;;;;;;;;;;;;;;31.37;18.37;94777.25;5001110;28;19921;-50
2021/10/07 05:00:12;;;;;;;;;;;;;;;31.63;18.67;94765.63;5002363;28;19925;-53
2021/10/07 05:02:39;;;;;;;;;;;;;;;31.06;19.08;94774.59;4976219;28;19929;-52
2021/10/07 05:05:07;;;;;;;;;;;;;;;30.62;18.93;94787.09;4976752;28;20348;-59
2021/10/07 05:07:33;;;;;;;;;;;;;;;31.23;18.62;94786.34;4991418;28;19918;-62
2021/10/07 05:10:00;;;;;;;;;;;;;;;31.04;18.33;94768.84;4976504;28;19940;-53
2021/10/07 05:12:27;;;;;;;;;;;;;;;30.60;18.96;94767.88;4986887;28;19992;-59
2021/10/07 05:14:54;;;;;;;;;;;;;;;30.72;19.09;94779.31;4987809;28;19918;-50
2021/10/07 05:17:21;;;;;;;;;;;;;;;30.66;18.98;94793.22;4994996;28;19914;-52
2021/10/07 05:19:47;;;;;;;;;;;;;;;30.95;19.04;94782.06;4997657;28;19914;-48
2021/10/07 05:22:14;;;;;;;;;;;;;;;30.76;18.93;94786.19;5014274;28;19928;-56
2021/10/07 05:24:41;;;;;;;;;;;;;;;31.05;18.58;94759.56;5015222;28;20332;-62
2021/10/07 05:27:08;;;;;;;;;;;;;;;30.60;19.07;94770.56;4996423;28;20000;-58
2021/10/07 05:29:35;;;;;;;;;;;;;;;30.72;19.24;94768.50;4995546;28;19914;-62
2021/10/07 05:32:02;;;;;;;;;;;;;;;30.80;19.15;94759.91;4995283;28;19948;-47
2021/10/07 05:34:29;;;;;;;;;;;;;;;30.60;19.10;94767.88;4995538;28;19918;-57
2021/10/07 05:36:55;;;;;;;;;;;;;;;30.61;19.42;94768.63;4995185;28;20324;-53
2021/10/07 05:39:22;;;;;;;;;;;;;;;30.49;19.51;94772.63;4994188;28;19975;-53
2021/10/07 05:41:49;;;;;;;;;;;;;;;30.29;19.46;94774.38;4995325;28;19929;-54
2021/10/07 05:44:16;;;;;;;;;;;;;;;30.61;19.31;94774.03;5005745;28;19921;-50
2021/10/07 05:46:43;;;;;;;;;;;;;;;30.27;19.81;94776.72;4988244;28;19948;-48
2021/10/07 05:49:10;;;;;;;;;;;;;;;30.28;19.65;94783.66;4994396;28;19918;-47
2021/10/07 05:51:36;;;;;;;;;;;;;;;29.84;19.85;94771.72;5012288;28;19917;-51
2021/10/07 05:54:03;;;;;;;;;;;;;;;30.04;19.92;94769.25;5015059;28;19917;-48
2021/10/07 05:56:30;;;;;;;;;;;;;;;30.14;19.63;94770.31;5003119;28;20232;-47
2021/10/07 05:58:57;;;;;;;;;;;;;;;30.03;19.88;94767.72;4995548;28;19925;-51
2021/10/07 06:01:24;;;;;;;;;;;;;;;29.93;20.00;94769.34;4994889;28;19921;-48
2021/10/07 06:03:50;;;;;;;;;;;;;;;29.95;19.95;94760.88;4995299;28;19918;-48
2021/10/07 06:06:17;;;;;;;;;;;;;;;29.39;20.23;94779.78;4992311;28;19922;-47
2021/10/07 06:08:44;;;;;;;;;;;;;;;31.04;19.06;94779.63;4988887;28;19914;-47
2021/10/07 06:11:11;;;;;;;;;;;;;;;31.27;18.55;94792.44;4979609;28;20298;-46
2021/10/07 06:13:38;;;;;;;;;;;;;;;30.07;19.55;94809.66;5003543;28;20224;-48
2021/10/07 06:16:05;;;;;;;;;;;;;;;29.76;19.54;94795.28;5007144;28;19921;-49
2021/10/07 06:18:32;;;;;;;;;;;;;;;30.28;19.13;94794.44;4990509;28;19921;-52
2021/10/07 06:20:59;;;;;;;;;;;;;;;29.85;19.64;94791.34;5010925;28;19917;-49
2021/10/07 06:23:25;;;;;;;;;;;;;;;30.59;18.44;94793.28;5013359;28;19928;-47
2021/10/07 06:25:52;;;;;;;;;;;;;;;30.11;18.81;94816.94;4984378;28;19914;-65
2021/10/07 06:28:19;;;;;;;;;;;;;;;31.44;18.10;94806.84;4999929;28;20252;-53
2021/10/07 06:30:47;;;;;;;;;;;;;;;30.33;18.86;94818.25;4991526;28;19918;-47
2021/10/07 06:33:13;;;;;;;;;;;;;;;30.60;18.86;94813.72;4978931;28;19914;-52
2021/10/07 06:35:40;;;;;;;;;;;;;;;30.89;18.36;94805.28;4982025;28;19917;-56
2021/10/07 06:38:07;;;;;;;;;;;;;;;30.93;18.28;94801.34;4991841;28;19952;-48
2021/10/07 06:40:34;;;;;;;;;;;;;;;31.57;17.75;94813.97;4990148;28;19918;-66
2021/10/07 06:43:01;;;;;;;;;;;;;;;30.12;19.13;94816.53;4990161;28;20244;-47
2021/10/07 06:45:29;;;;;;;;;;;;;;;30.12;18.85;94823.84;5016294;28;20297;-51
2021/10/07 06:47:56;;;;;;;;;;;;;;;29.95;19.21;94815.53;4998179;28;19917;-47
2021/10/07 06:50:23;;;;;;;;;;;;;;;29.82;19.37;94806.41;4993921;28;19924;-48
2021/10/07 06:52:50;;;;;;;;;;;;;;;30.86;18.80;94808.78;5017853;28;20308;-49
2021/10/07 06:55:17;;;;;;;;;;;;;;;30.97;18.34;94802.09;5017676;28;19925;-49
2021/10/07 06:57:44;;;;;;;;;;;;;;;30.86;18.80;94796.06;5000233;28;19921;-47
2021/10/07 07:00:11;;;;;;;;;;;;;;;31.06;18.38;94801.56;4998113;28;19924;-47
2021/10/07 07:02:38;;;;;;;;;;;;;;;30.27;19.61;94803.69;4997973;28;19922;-48
2021/10/07 07:05:06;;;;;;;;;;;;;;;30.47;19.25;94801.91;4997394;28;19944;-49
2021/10/07 07:07:33;;;;;;;;;;;;;;;30.67;19.04;94791.28;4997217;28;19918;-48
2021/10/07 07:10:00;;;;;;;;;;;;;;;30.90;18.69;94799.47;4997886;28;19914;-51
2021/10/07 07:12:27;;;;;;;;;;;;;;;30.91;18.88;94809.09;4997651;28;19918;-47
2021/10/07 07:14:54;;;;;;;;;;;;;;;30.75;19.15;94808.16;4978649;28;20314;-47
2021/10/07 07:17:20;;;;;;;;;;;;;;;30.54;19.13;94809.94;4993574;28;19913;-48
2021/10/07 07:19:48;;;;;;;;;;;;;;;30.54;19.40;94818.00;4999021;28;20256;-47
2021/10/07 07:22:16;;;;;;;;;;;;;;;30.26;19.70;94815.63;5017027;28;19921;-47
2021/10/07 07:24:43;;;;;;;;;;;;;;;30.67;19.66;94816.34;5017318;28;19913;-49
2021/10/07 07:27:11;;;;;;;;;;;;;;;30.39;19.98;94811.25;5004540;28;19913;-47
2021/10/07 07:29:38;;;;;;;;;;;;;;;30.61;19.65;94820.66;4998693;28;19922;-48
2021/10/07 07:32:05;;;;;;;;;;;;;;;30.96;19.24;94827.53;4997457;28;19913;-47
2021/10/07 07:34:31;;;;;;;;;;;;;;;31.01;19.41;94845.22;4997601;28;19924;-48
2021/10/07 07:36:58;;;;;;;;;;;;;;;30.69;19.82;94838.28;4997197;28;19918;-48
2021/10/07 07:39:25;;;;;;;;;;;;;;;31.15;19.36;94836.94;4997112;28;19914;-49
2021/10/07 07:41:52;;;;;;;;;;;;;;;30.92;19.38;94847.66;4997008;28;19929;-47
2021/10/07 07:44:19;;;;;;;;;;;;;;;30.77;19.38;94846.31;5010639;28;19913;-48
2021/10/07 07:46:46;;;;;;;;;;;;;;;30.80;19.46;94845.50;5006768;28;19914;-49
2021/10/07 07:49:13;;;;;;;;;;;;;;;30.80;19.42;94851.66;4996874;28;19925;-47
2021/10/07 07:51:39;;;;;;;;;;;;;;;30.76;19.43;94850.94;5014491;28;19917;-47
2021/10/07 07:54:06;;;;;;;;;;;;;;;31.27;18.80;94857.25;5016698;28;19917;-48
2021/10/07 07:56:33;;;;;;;;;;;;;;;30.41;19.62;94849.34;5007702;28;20236;-49
2021/10/07 07:59:00;;;;;;;;;;;;;;;30.27;19.94;94846.81;4998748;28;19921;-47
2021/10/07 08:01:27;;;;;;;;;;;;;;;30.60;19.60;94848.81;4993438;28;19929;-48
2021/10/07 08:03:54;;;;;;;;;;;;;;;30.77;19.68;94846.31;4996017;28;19914;-47
2021/10/07 08:06:21;;;;;;;;;;;;;;;30.90;19.15;94839.19;4997068;28;20289;-49
2021/10/07 08:08:48;;;;;;;;;;;;;;;30.84;18.96;94843.50;4996556;28;19921;-47
2021/10/07 08:11:14;;;;;;;;;;;;;;;30.51;19.31;94851.19;4996437;28;20293;-47
2021/10/07 08:13:41;;;;;;;;;;;;;;;30.72;19.11;94854.84;5003583;28;19921;-49
2021/10/07 08:16:08;;;;;;;;;;;;;;;29.01;20.25;94864.25;5009979;28;20308;-48
2021/10/07 08:18:35;;;;;;;;;;;;;;;30.16;19.12;94862.31;4985043;28;19914;-47
2021/10/07 08:21:02;;;;;;;;;;;;;;;30.86;18.65;94865.47;4989452;28;19914;-48
2021/10/07 08:23:30;;;;;;;;;;;;;;;30.75;18.60;94859.44;4996394;28;19926;-47
2021/10/07 08:25:57;;;;;;;;;;;;;;;31.70;18.01;94860.06;4990683;28;19921;-47
2021/10/07 08:28:24;;;;;;;;;;;;;;;30.98;18.68;94841.41;4993073;28;19924;-46
2021/10/07 08:30:51;;;;;;;;;;;;;;;30.65;18.91;94845.66;4995370;28;19913;-49
2021/10/07 08:33:18;;;;;;;;;;;;;;;30.97;18.48;94844.50;4996197;28;20327;-47
2021/10/07 08:35:45;;;;;;;;;;;;;;;30.44;18.63;94851.25;4995607;28;19920;-49
2021/10/07 08:38:12;;;;;;;;;;;;;;;30.79;18.17;94846.66;4996619;28;19913;-47
2021/10/07 08:40:39;;;;;;;;;;;;;;;30.64;18.48;94854.91;4996657;28;19923;-47
2021/10/07 08:43:05;;;;;;;;;;;;;;;30.55;18.49;94845.75;4992729;28;19918;-47
2021/10/07 08:45:32;;;;;;;;;;;;;;;30.39;18.55;94843.59;4981472;28;20040;-50
2021/10/07 08:47:59;;;;;;;;;;;;;;;30.19;18.48;94845.34;4995403;28;19924;-47
2021/10/07 08:50:26;;;;;;;;;;;;;;;30.96;17.97;94857.22;5002118;28;20205;-50
2021/10/07 08:52:53;;;;;;;;;;;;;;;31.21;17.52;94845.34;4989034;28;20305;-50
2021/10/07 08:55:20;;;;;;;;;;;;;;;30.94;18.07;94861.50;4978963;28;19921;-48
2021/10/07 08:57:47;;;;;;;;;;;;;;;31.38;17.69;94846.28;5002425;28;19913;-47
2021/10/07 09:00:15;;;;;;;;;;;;;;;30.40;18.42;94845.13;5009389;28;19921;-48
2021/10/07 09:02:42;;;;;;;;;;;;;;;30.70;18.10;94836.34;4995408;28;19945;-49
2021/10/07 09:05:14;;;;;;;;;;;;;;;30.86;17.84;94841.16;4995449;28;20236;-48
2021/10/07 09:08:04;;;;;;;;;;;;;;;30.94;17.96;94843.38;4995681;28;20297;-51
2021/10/07 09:10:37;;;;;;;;;;;;;;;31.35;17.49;94830.91;4995714;28;19913;-48
2021/10/07 09:13:09;;;;;;;;;;;;;;;31.06;17.73;94831.28;4995215;28;20615;-46
2021/10/07 09:15:43;;;;;;;;;;;;;;;30.77;17.79;94824.72;4995251;28;19925;-47
2021/10/07 09:18:10;;;;;;;;;;;;;;;30.68;18.08;94834.06;4995519;28;19913;-48
2021/10/07 09:20:37;;;;;;;;;;;;;;;31.12;17.77;94813.44;5004629;28;19944;-47
2021/10/07 09:23:05;;;;;;;;;;;;;;;31.31;17.35;94808.59;4981145;28;19921;-48
2021/10/07 09:25:50;;;;;;;;;;;;;;;30.40;18.08;94834.34;4992544;28;19917;-47
2021/10/07 09:28:17;;;;;;;;;;;;;;;29.85;18.32;94854.09;4977558;28;19949;-47
2021/10/07 09:30:44;;;;;;;;;;;;;;;30.89;17.42;94829.56;4975877;28;20340;-49
2021/10/07 09:33:11;;;;;;;;;;;;;;;30.58;17.59;94840.31;4992121;28;19922;-49
2021/10/07 09:35:38;;;;;;;;;;;;;;;30.54;17.47;94850.38;4994956;28;19917;-45
2021/10/07 09:38:05;;;;;;;;;;;;;;;30.99;16.99;94836.78;4993160;28;19921;-47
2021/10/07 09:40:32;;;;;;;;;;;;;;;31.36;16.91;94840.53;4975628;28;19923;-48
2021/10/07 09:43:00;;;;;;;;;;;;;;;30.86;17.21;94833.06;4992796;28;19922;-48
2021/10/07 09:45:27;;;;;;;;;;;;;;;30.66;17.71;94830.22;4998877;28;19914;-47
2021/10/07 09:47:55;;;;;;;;;;;;;;;31.34;17.21;94840.94;4999161;28;20240;-52
2021/10/07 09:50:31;;;;;;;;;;;;;;;31.33;17.26;94827.84;5006410;28;19928;-47
2021/10/07 09:53:02;;;;;;;;;;;;;;;31.25;17.00;94827.97;5004159;28;19929;-50
2021/10/07 09:55:33;;;;;;;;;;;;;;;31.50;16.77;94834.94;4991859;28;19921;-49
2021/10/07 09:58:03;;;;;;;;;;;;;;;31.85;16.86;94834.38;5002689;28;19921;-48
2021/10/07 10:00:34;;;;;;;;;;;;;;;31.84;16.76;94830.16;4998936;28;19913;-48
2021/10/07 10:03:01;;;;;;;;;;;;;;;31.57;16.80;94827.47;4997983;28;19924;-48
2021/10/07 10:05:28;;;;;;;;;;;;;;;31.16;17.20;94830.38;4996997;28;20328;-47
2021/10/07 10:07:55;;;;;;;;;;;;;;;31.68;17.24;94830.00;4999058;28;19913;-49
2021/10/07 10:10:22;;;;;;;;;;;;;;;32.00;16.88;94815.97;4999176;28;19918;-48
2021/10/07 10:12:50;;;;;;;;;;;;;;;31.76;17.06;94823.34;4998571;28;19924;-47
2021/10/07 10:15:18;;;;;;;;;;;;;;;31.87;16.73;94807.72;4998683;28;20103;-48
2021/10/07 10:17:45;;;;;;;;;;;;;;;32.00;16.84;94820.63;4998847;28;19944;-49
2021/10/07 10:20:21;;;;;;;;;;;;;;;31.49;17.07;94819.88;5004682;28;19925;-49
2021/10/07 10:22:58;;;;;;;;;;;;;;;32.03;16.92;94812.47;5005922;28;19930;-47
2021/10/07 10:25:26;;;;;;;;;;;;;;;31.47;16.99;94827.63;4981210;28;19914;-49
2021/10/07 10:27:55;;;;;;;;;;;;;;;31.53;16.82;94815.19;5006115;28;19917;-48
2021/10/07 10:30:25;;;;;;;;;;;;;;;31.43;17.10;94821.50;5018351;28;19921;-47
2021/10/07 10:32:53;;;;;;;;;;;;;;;31.17;17.20;94825.75;5004883;28;19918;-48
2021/10/07 10:35:32;;;;;;;;;;;;;;;31.64;16.79;94829.28;4998313;28;19913;-47
2021/10/07 10:37:59;;;;;;;;;;;;;;;31.67;17.04;94828.47;4998573;28;19920;-49
2021/10/07 10:40:26;;;;;;;;;;;;;;;31.10;17.10;94810.38;4998578;28;19914;-47
2021/10/07 10:43:26;;;;;;;;;;;;;;;31.76;16.91;94807.13;4997621;28;19928;-48
2021/10/07 10:45:53;;;;;;;;;;;;;;;31.23;17.22;94800.59;4973136;28;19924;-47
2021/10/07 10:48:38;;;;;;;;;;;;;;;31.21;17.43;94792.13;4998281;28;19921;-47
2021/10/07 10:51:08;;;;;;;;;;;;;;;31.82;17.01;94794.66;5011066;28;19921;-47
2021/10/07 10:53:47;;;;;;;;;;;;;;;31.42;17.13;94803.78;5013856;28;19925;-47
2021/10/07 10:56:14;;;;;;;;;;;;;;;31.65;16.98;94806.50;4997708;28;19917;-48
2021/10/07 10:58:41;;;;;;;;;;;;;;;31.06;17.68;94808.91;5012022;28;19924;-47
2021/10/07 11:01:14;;;;;;;;;;;;;;;31.74;17.22;94811.41;5017378;28;20240;-47
2021/10/07 11:03:41;;;;;;;;;;;;;;;31.25;17.12;94795.56;5013895;28;19917;-48
2021/10/07 11:06:11;;;;;;;;;;;;;;;31.09;17.44;94786.50;4997381;28;19922;-47
2021/10/07 11:08:41;;;;;;;;;;;;;;;30.99;17.43;94788.19;4997605;28;20359;-47
2021/10/07 11:11:08;;;;;;;;;;;;;;;30.79;17.73;94774.56;4992513;28;19929;-47
2021/10/07 11:13:44;;;;;;;;;;;;;;;31.04;17.62;94779.63;4980026;28;19925;-48
2021/10/07 11:16:14;;;;;;;;;;;;;;;30.95;17.74;94779.34;4997508;28;19918;-49
2021/10/07 11:18:41;;;;;;;;;;;;;;;30.75;18.01;94783.88;4997575;28;19914;-48
2021/10/07 11:21:12;;;;;;;;;;;;;;;31.36;17.50;94762.22;4993451;28;19917;-47
2021/10/07 11:23:39;;;;;;;;;;;;;;;31.51;17.82;94777.03;5013590;28;19925;-49
2021/10/07 11:26:06;;;;;;;;;;;;;;;31.21;17.95;94769.75;4992095;28;20245;-49
2021/10/07 11:28:36;;;;;;;;;;;;;;;31.42;17.85;94768.66;5010013;28;19914;-47
2021/10/07 11:31:09;;;;;;;;;;;;;;;31.45;18.30;94765.13;5016538;28;19924;-51
2021/10/07 11:33:36;;;;;;;;;;;;;;;31.54;18.27;94768.09;5014232;28;19924;-48
2021/10/07 11:36:04;;;;;;;;;;;;;;;31.92;17.59;94765.16;4996541;28;19913;-49
2021/10/07 11:38:31;;;;;;;;;;;;;;;31.05;18.14;94775.75;4997798;28;19921;-47
2021/10/07 11:40:59;;;;;;;;;;;;;;;31.40;18.38;94784.53;4996957;28;20433;-50
2021/10/07 11:43:27;;;;;;;;;;;;;;;31.66;17.86;94781.00;4996987;28;19917;-48
2021/10/07 11:45:55;;;;;;;;;;;;;;;31.63;17.96;94784.53;4985396;28;19918;-48
2021/10/07 11:48:22;;;;;;;;;;;;;;;31.59;17.83;94787.31;4995795;28;19914;-49
2021/10/07 11:50:50;;;;;;;;;;;;;;;31.48;18.19;94784.00;5007675;28;20355;-49
2021/10/07 11:53:37;;;;;;;;;;;;;;;31.79;17.70;94778.53;5016699;28;19925;-47
2021/10/07 11:56:11;;;;;;;;;;;;;;;31.05;18.02;94794.66;4985484;28;19924;-49
2021/10/07 11:58:38;;;;;;;;;;;;;;;31.31;17.62;94787.75;5010537;28;19921;-46
2021/10/07 12:01:05;;;;;;;;;;;;;;;31.37;17.31;94772.59;5016414;28;19917;-49
2021/10/07 12:03:33;;;;;;;;;;;;;;;31.84;17.25;94776.09;5016024;28;19921;-48
2021/10/07 12:06:01;;;;;;;;;;;;;;;31.82;17.47;94773.06;4996013;28;19924;-47
2021/10/07 12:08:29;;;;;;;;;;;;;;;31.54;17.20;94785.06;4997090;28;19914;-49
2021/10/07 12:10:58;;;;;;;;;;;;;;;31.71;17.11;94777.84;4996677;28;19921;-48
2021/10/07 12:13:27;;;;;;;;;;;;;;;31.31;17.24;94786.97;4996871;28;19944;-48
2021/10/07 12:15:58;;;;;;;;;;;;;;;31.70;17.05;94792.50;4996251;28;19924;-49
2021/10/07 12:18:26;;;;;;;;;;;;;;;31.76;17.26;94790.94;4995901;28;19924;-47
2021/10/07 12:20:56;;;;;;;;;;;;;;;32.01;17.09;94792.41;5007261;28;19924;-48
2021/10/07 12:23:23;;;;;;;;;;;;;;;31.40;17.27;94779.13;5015471;28;19925;-49
2021/10/07 12:26:13;;;;;;;;;;;;;;;30.76;17.87;94782.72;4999098;28;20303;-50
2021/10/07 12:28:43;;;;;;;;;;;;;;;30.75;17.63;94779.25;5004795;28;20306;-48
2021/10/07 12:31:10;;;;;;;;;;;;;;;31.36;17.19;94783.81;5015366;28;19924;-47
2021/10/07 12:33:36;;;;;;;;;;;;;;;31.06;17.77;94777.28;5014241;28;19936;-44
2021/10/07 12:36:07;;;;;;;;;;;;;;;30.66;18.28;94776.28;4995590;28;19914;-44
2021/10/07 12:38:47;;;;;;;;;;;;;;;31.43;17.79;94776.34;4972685;28;19913;-42
2021/10/07 12:41:14;;;;;;;;;;;;;;;31.57;17.43;94769.97;4993765;28;19913;-52
2021/10/07 12:43:54;;;;;;;;;;;;;;;31.93;17.33;94791.00;4983556;28;19922;-50
2021/10/07 12:46:21;;;;;;;;;;;;;;;31.77;17.57;94787.03;4995482;28;19918;-49
2021/10/07 12:48:52;;;;;;;;;;;;;;;31.68;17.57;94794.88;4996313;28;19918;-51
2021/10/07 12:51:20;;;;;;;;;;;;;;;31.73;17.60;94801.75;5010614;28;19917;-52
2021/10/07 12:53:47;;;;;;;;;;;;;;;31.96;17.16;94792.88;5014640;28;19921;-50
2021/10/07 12:56:15;;;;;;;;;;;;;;;31.68;17.35;94789.47;4995414;28;19914;-51